Flight Track Log - Related Links

Times and Time Zones

All times are in EDT time to prevent confusion due to time zone crossing. See the N103MK flight status page for this flight to view local times or setup timezone preferences in your user account.

Time Position Orientation Groundspeed Altitude Reporting Facility
EDT Latitude Longitude Course Direction KTS MPH feet Rate Location/Type
Wed 09:21:00 AM 33.8500 -81.2253 270° West  Level FlightAware Approximate
Wed 09:22:00 AM 33.8670 -81.2747 273° West  Level FlightAware Approximate
Wed 09:23:00 AM 33.8691 -81.3296 273° West  Level FlightAware Approximate
Wed 09:24:00 AM 33.8683 -81.3848 273° West  Level FlightAware Approximate
Wed 09:25:00 AM 33.8708 -81.4392 273° West  Level FlightAware Approximate
Wed 09:26:00 AM 33.8733 -81.4937 273° West  Level FlightAware Approximate
Wed 09:27:00 AM 33.8758 -81.5482 273° West  Level FlightAware Approximate
Wed 09:28:00 AM 33.8783 -81.6027 273° West  Level FlightAware Approximate
Wed 09:29:00 AM 33.8807 -81.6572 273° West  Level FlightAware Approximate
Wed 09:30:00 AM 33.8831 -81.7117 273° West  Level FlightAware Approximate
Wed 09:31:00 AM 33.8850 -81.7663 272° West  Level FlightAware Approximate
Wed 09:32:00 AM 33.8868 -81.8208 272° West  Level FlightAware Approximate
Wed 09:33:00 AM 33.8886 -81.8754 272° West  Level FlightAware Approximate
Wed 09:34:00 AM 33.8904 -81.9299 272° West  Level FlightAware Approximate
Wed 09:35:00 AM 33.8922 -81.9845 272° West  Level FlightAware Approximate
Wed 09:36:00 AM 33.8939 -82.0390 272° West  Level FlightAware Approximate
Wed 09:37:00 AM 33.8956 -82.0936 272° West  Level FlightAware Approximate
Wed 09:38:00 AM 33.8973 -82.1481 272° West  Level FlightAware Approximate
Wed 09:39:00 AM 33.8989 -82.2026 272° West  Level FlightAware Approximate
Wed 09:40:00 AM 33.9005 -82.2572 272° West  Level FlightAware Approximate
Wed 09:41:00 AM 33.9021 -82.3117 272° West  Level FlightAware Approximate
Wed 09:42:00 AM 33.9037 -82.3663 272° West  Level FlightAware Approximate
Wed 09:43:00 AM 33.9053 -82.4208 272° West  Level FlightAware Approximate
Wed 09:44:00 AM 33.9068 -82.4754 272° West  Level FlightAware Approximate
Wed 09:45:00 AM 33.9083 -82.5300 272° West  Level FlightAware Approximate
Wed 09:46:00 AM 33.9098 -82.5845 272° West  Level FlightAware Approximate
Wed 09:47:00 AM 33.9113 -82.6391 272° West  Level FlightAware Approximate
Wed 09:48:00 AM 33.9127 -82.6936 272° West  Level FlightAware Approximate
Wed 09:49:00 AM 33.9141 -82.7482 272° West  Level FlightAware Approximate
Wed 09:50:00 AM 33.9155 -82.8028 272° West  Level FlightAware Approximate
Wed 09:51:00 AM 33.9169 -82.8573 273° West  Level FlightAware Approximate
Wed 09:51:18 AM 33.9667 -82.7833 272° West 159 183 10,100  Level Atlanta TRACON
Wed 09:52:00 AM 33.9190 -82.9119 273° West  Level FlightAware Approximate
Wed 09:52:24 AM 33.9667 -82.8333 270° West 160 184 10,100  Level Atlanta TRACON
Wed 09:53:00 AM 33.9210 -82.9664 273° West  Level FlightAware Approximate
Wed 09:53:24 AM 33.9667 -82.8833 270° West 158 182 10,200  Level Atlanta TRACON
Wed 09:54:00 AM 33.9230 -83.0209 273° West  Level FlightAware Approximate
Wed 09:54:24 AM 33.9667 -82.9500 270° West 173 199 9,700  Level Atlanta TRACON
Wed 09:55:00 AM 33.9249 -83.0755 272° West  Level FlightAware Approximate
Wed 09:55:24 AM 33.9833 -83.0000 292° West 169 194 9,300  Level Atlanta TRACON
Wed 09:56:00 AM 33.9269 -83.1300 272° West  Level FlightAware Approximate
Wed 09:56:24 AM 33.9833 -83.0500 270° West 173 199 8,900  Level Atlanta TRACON
Wed 09:57:24 AM 34.0000 -83.1167 287° West 170 196 8,400 -400 Descending Atlanta TRACON
Wed 09:58:24 AM 34.0000 -83.1667 270° West 170 196 8,100 -200 Descending Atlanta TRACON
Wed 09:59:24 AM 34.0167 -83.2167 292° West 157 181 8,000 -50 Descending Atlanta TRACON
Wed 10:00:24 AM 34.0167 -83.2667 270° West 153 176 8,000  Level Atlanta TRACON
Wed 10:01:30 AM 34.0333 -83.3333 287° West 154 177 8,000  Level Atlanta TRACON
Wed 10:02:30 AM 34.0333 -83.3833 270° West 156 180 8,000  Level Atlanta TRACON
Wed 10:03:30 AM 34.0500 -83.4333 292° West 158 182 8,000 -200 Level Atlanta TRACON
Wed 10:04:30 AM 34.0667 -83.4833 292° West 167 192 7,600 -400 Descending Atlanta TRACON
Wed 10:05:30 AM 34.0667 -83.5333 270° West 169 194 7,200 -450 Descending Atlanta TRACON
Wed 10:06:30 AM 34.0833 -83.6000 287° West 171 197 6,700 -450 Descending Atlanta TRACON
Wed 10:07:30 AM 34.0833 -83.6500 270° West 171 197 6,300 -400 Descending Atlanta TRACON
Wed 10:08:30 AM 34.1000 -83.7000 292° West 167 192 5,900 -150 Descending Atlanta TRACON
Wed 10:09:30 AM 34.1000 -83.7500 270° West 158 182 6,000 50 Climbing Atlanta TRACON
Wed 10:10:30 AM 34.1167 -83.8000 292° West 152 175 6,000  Level Atlanta TRACON
Wed 10:11:24 AM 34.1167 -83.8500 270° West 149 171 6,000 50 Level Atlanta TRACON
Wed 10:12:30 AM 34.1167 -83.9000 270° West 156 180 6,100 -190 Climbing Atlanta TRACON
Wed 10:13:30 AM 34.1000 -83.9500 248° West 165 190 5,600 -474 Descending Atlanta TRACON
Wed 10:14:24 AM 34.1000 -84.0000 270° West 167 192 5,200 -476 Descending Atlanta TRACON
Wed 10:15:36 AM 34.0833 -84.0833 256° West 167 192 4,600 -476 Descending Atlanta TRACON
Wed 10:16:30 AM 34.0833 -84.1167 270° West 168 193 4,200 -421 Descending Atlanta TRACON
Wed 10:17:30 AM 34.0667 -84.1833 253° West 156 180 3,800 -450 Descending Atlanta TRACON
Wed 10:18:30 AM 34.0500 -84.2167 239° Southwest 167 192 3,300 -421 Descending Atlanta TRACON
Wed 10:19:24 AM 34.0167 -84.2333 203° Southwest 166 191 3,000 -211 Descending Atlanta TRACON
Wed 10:20:24 AM 33.9667 -84.2500 195° South 151 174 2,900 -450 Descending Atlanta TRACON
Wed 10:21:24 AM 33.9333 -84.2833 220° Southwest 160 184 2,100 -750 Descending Atlanta TRACON
Wed 10:22:24 AM 33.9000 -84.2833 180° South 122 140 1,400 -700 Descending Atlanta TRACON
Wed 10:24:00 AM 33.8667 -84.3000 270° West  Level FlightAware Approximate

Login

Don't have an account? Register now (free) for customized features, flight alerts, and more!